sensor_id;sensor_type;location;lat;lon;timestamp;P1;durP1;ratioP1;P2;durP2;ratioP2
41865;SDS011;27539;43.222;27.558;2023-04-24T00:00:12;7.13;;;4.75;;
41865;SDS011;27539;43.222;27.558;2023-04-24T00:02:40;4.32;;;3.92;;
41865;SDS011;27539;43.222;27.558;2023-04-24T00:05:07;8.88;;;4.07;;
41865;SDS011;27539;43.222;27.558;2023-04-24T00:07:33;3.42;;;2.75;;
41865;SDS011;27539;43.222;27.558;2023-04-24T00:09:59;4.18;;;3.63;;
41865;SDS011;27539;43.222;27.558;2023-04-24T00:12:25;3.83;;;2.53;;
41865;SDS011;27539;43.222;27.558;2023-04-24T00:14:52;4.85;;;3.25;;
41865;SDS011;27539;43.222;27.558;2023-04-24T00:17:17;6.70;;;3.50;;
41865;SDS011;27539;43.222;27.558;2023-04-24T00:19:46;11.90;;;4.10;;
41865;SDS011;27539;43.222;27.558;2023-04-24T00:22:12;8.82;;;3.38;;
41865;SDS011;27539;43.222;27.558;2023-04-24T00:24:39;7.68;;;3.95;;
41865;SDS011;27539;43.222;27.558;2023-04-24T00:27:05;14.70;;;3.60;;
41865;SDS011;27539;43.222;27.558;2023-04-24T00:29:31;15.15;;;4.68;;
41865;SDS011;27539;43.222;27.558;2023-04-24T00:31:56;7.23;;;4.47;;
41865;SDS011;27539;43.222;27.558;2023-04-24T00:34:22;10.98;;;6.10;;
41865;SDS011;27539;43.222;27.558;2023-04-24T00:36:48;3.30;;;2.50;;
41865;SDS011;27539;43.222;27.558;2023-04-24T00:39:20;6.72;;;3.65;;
41865;SDS011;27539;43.222;27.558;2023-04-24T00:41:46;4.88;;;2.67;;
41865;SDS011;27539;43.222;27.558;2023-04-24T00:44:13;8.63;;;4.00;;
41865;SDS011;27539;43.222;27.558;2023-04-24T00:46:39;5.82;;;3.33;;
41865;SDS011;27539;43.222;27.558;2023-04-24T00:49:05;6.55;;;4.00;;
41865;SDS011;27539;43.222;27.558;2023-04-24T00:51:33;4.47;;;4.07;;
41865;SDS011;27539;43.222;27.558;2023-04-24T00:53:59;5.10;;;2.67;;
41865;SDS011;27539;43.222;27.558;2023-04-24T00:56:26;6.95;;;2.50;;
41865;SDS011;27539;43.222;27.558;2023-04-24T00:58:52;4.25;;;3.58;;
41865;SDS011;27539;43.222;27.558;2023-04-24T01:01:19;3.85;;;2.78;;
41865;SDS011;27539;43.222;27.558;2023-04-24T01:03:51;5.65;;;2.53;;
41865;SDS011;27539;43.222;27.558;2023-04-24T01:06:18;2.53;;;2.33;;
41865;SDS011;27539;43.222;27.558;2023-04-24T01:11:11;1.27;;;0.95;;
41865;SDS011;27539;43.222;27.558;2023-04-24T01:13:37;6.65;;;1.80;;
41865;SDS011;27539;43.222;27.558;2023-04-24T01:16:03;1.63;;;1.53;;
41865;SDS011;27539;43.222;27.558;2023-04-24T01:18:28;0.93;;;0.93;;
41865;SDS011;27539;43.222;27.558;2023-04-24T01:20:56;0.90;;;0.90;;
41865;SDS011;27539;43.222;27.558;2023-04-24T01:23:24;2.60;;;1.80;;
41865;SDS011;27539;43.222;27.558;2023-04-24T01:25:49;1.05;;;1.05;;
41865;SDS011;27539;43.222;27.558;2023-04-24T01:28:15;2.07;;;1.17;;
41865;SDS011;27539;43.222;27.558;2023-04-24T01:30:41;2.30;;;2.00;;
41865;SDS011;27539;43.222;27.558;2023-04-24T01:33:07;3.00;;;2.70;;
41865;SDS011;27539;43.222;27.558;2023-04-24T01:35:33;6.70;;;3.30;;
41865;SDS011;27539;43.222;27.558;2023-04-24T01:38:01;1.65;;;1.55;;
41865;SDS011;27539;43.222;27.558;2023-04-24T01:40:27;4.13;;;2.93;;
41865;SDS011;27539;43.222;27.558;2023-04-24T01:42:52;2.77;;;2.50;;
41865;SDS011;27539;43.222;27.558;2023-04-24T01:45:18;5.07;;;4.57;;
41865;SDS011;27539;43.222;27.558;2023-04-24T01:47:43;3.97;;;3.60;;
41865;SDS011;27539;43.222;27.558;2023-04-24T01:50:11;5.15;;;4.50;;
41865;SDS011;27539;43.222;27.558;2023-04-24T01:52:37;4.75;;;3.92;;
41865;SDS011;27539;43.222;27.558;2023-04-24T01:55:03;6.10;;;4.60;;
41865;SDS011;27539;43.222;27.558;2023-04-24T01:59:56;3.85;;;3.05;;
41865;SDS011;27539;43.222;27.558;2023-04-24T02:02:21;11.23;;;4.22;;
41865;SDS011;27539;43.222;27.558;2023-04-24T02:04:49;4.95;;;4.03;;
41865;SDS011;27539;43.222;27.558;2023-04-24T02:07:15;6.57;;;5.37;;
41865;SDS011;27539;43.222;27.558;2023-04-24T02:09:40;5.50;;;4.75;;
41865;SDS011;27539;43.222;27.558;2023-04-24T02:12:05;11.45;;;6.63;;
41865;SDS011;27539;43.222;27.558;2023-04-24T02:14:31;22.17;;;4.63;;
41865;SDS011;27539;43.222;27.558;2023-04-24T02:16:57;4.88;;;3.42;;
41865;SDS011;27539;43.222;27.558;2023-04-24T02:19:22;6.10;;;3.03;;
41865;SDS011;27539;43.222;27.558;2023-04-24T02:21:48;10.50;;;4.53;;
41865;SDS011;27539;43.222;27.558;2023-04-24T02:24:13;4.60;;;2.93;;
41865;SDS011;27539;43.222;27.558;2023-04-24T02:26:39;3.33;;;2.03;;
41865;SDS011;27539;43.222;27.558;2023-04-24T02:29:05;4.93;;;3.37;;
41865;SDS011;27539;43.222;27.558;2023-04-24T02:31:30;6.32;;;3.40;;
41865;SDS011;27539;43.222;27.558;2023-04-24T02:33:57;6.53;;;4.03;;
41865;SDS011;27539;43.222;27.558;2023-04-24T02:36:22;2.67;;;2.53;;
41865;SDS011;27539;43.222;27.558;2023-04-24T02:38:48;3.38;;;2.95;;
41865;SDS011;27539;43.222;27.558;2023-04-24T02:41:13;3.93;;;3.57;;
41865;SDS011;27539;43.222;27.558;2023-04-24T02:43:38;18.10;;;7.13;;
41865;SDS011;27539;43.222;27.558;2023-04-24T02:46:04;9.00;;;5.03;;
41865;SDS011;27539;43.222;27.558;2023-04-24T02:48:29;6.50;;;4.53;;
41865;SDS011;27539;43.222;27.558;2023-04-24T02:50:55;14.15;;;5.57;;
41865;SDS011;27539;43.222;27.558;2023-04-24T02:53:21;14.13;;;4.97;;
41865;SDS011;27539;43.222;27.558;2023-04-24T02:55:46;4.30;;;3.90;;
41865;SDS011;27539;43.222;27.558;2023-04-24T02:58:11;7.50;;;5.70;;
41865;SDS011;27539;43.222;27.558;2023-04-24T03:00:38;18.08;;;5.53;;
41865;SDS011;27539;43.222;27.558;2023-04-24T03:03:04;12.27;;;5.22;;
41865;SDS011;27539;43.222;27.558;2023-04-24T03:05:30;13.03;;;5.77;;
41865;SDS011;27539;43.222;27.558;2023-04-24T03:07:56;5.78;;;5.03;;
41865;SDS011;27539;43.222;27.558;2023-04-24T03:10:21;9.77;;;6.67;;
41865;SDS011;27539;43.222;27.558;2023-04-24T03:12:50;21.77;;;7.32;;
41865;SDS011;27539;43.222;27.558;2023-04-24T03:15:16;4.25;;;3.72;;
41865;SDS011;27539;43.222;27.558;2023-04-24T03:17:41;9.00;;;5.00;;
41865;SDS011;27539;43.222;27.558;2023-04-24T03:20:07;4.83;;;4.30;;
41865;SDS011;27539;43.222;27.558;2023-04-24T03:22:33;10.95;;;4.00;;
41865;SDS011;27539;43.222;27.558;2023-04-24T03:24:59;8.07;;;5.03;;
41865;SDS011;27539;43.222;27.558;2023-04-24T03:27:25;40.50;;;7.73;;
41865;SDS011;27539;43.222;27.558;2023-04-24T03:29:51;11.30;;;6.18;;
41865;SDS011;27539;43.222;27.558;2023-04-24T03:32:20;10.13;;;5.93;;
41865;SDS011;27539;43.222;27.558;2023-04-24T03:34:49;7.47;;;5.28;;
41865;SDS011;27539;43.222;27.558;2023-04-24T03:37:15;8.73;;;5.57;;
41865;SDS011;27539;43.222;27.558;2023-04-24T03:39:41;13.75;;;8.27;;
41865;SDS011;27539;43.222;27.558;2023-04-24T03:42:07;14.97;;;6.63;;
41865;SDS011;27539;43.222;27.558;2023-04-24T03:44:33;21.83;;;7.38;;
41865;SDS011;27539;43.222;27.558;2023-04-24T03:46:59;8.70;;;7.17;;
41865;SDS011;27539;43.222;27.558;2023-04-24T03:49:25;22.08;;;8.50;;
41865;SDS011;27539;43.222;27.558;2023-04-24T03:51:51;10.07;;;6.07;;
41865;SDS011;27539;43.222;27.558;2023-04-24T03:54:17;8.20;;;6.82;;
41865;SDS011;27539;43.222;27.558;2023-04-24T03:56:43;11.95;;;6.15;;
41865;SDS011;27539;43.222;27.558;2023-04-24T03:59:08;10.00;;;6.07;;
41865;SDS011;27539;43.222;27.558;2023-04-24T04:01:34;8.63;;;5.40;;
41865;SDS011;27539;43.222;27.558;2023-04-24T04:04:02;8.27;;;6.63;;
41865;SDS011;27539;43.222;27.558;2023-04-24T04:06:28;8.20;;;5.80;;
41865;SDS011;27539;43.222;27.558;2023-04-24T04:08:55;9.90;;;5.80;;
41865;SDS011;27539;43.222;27.558;2023-04-24T04:11:21;17.17;;;8.00;;
41865;SDS011;27539;43.222;27.558;2023-04-24T04:13:47;9.13;;;7.78;;
41865;SDS011;27539;43.222;27.558;2023-04-24T04:16:13;8.38;;;5.85;;
41865;SDS011;27539;43.222;27.558;2023-04-24T04:18:38;10.48;;;5.40;;
41865;SDS011;27539;43.222;27.558;2023-04-24T04:21:04;11.38;;;7.38;;
41865;SDS011;27539;43.222;27.558;2023-04-24T04:23:29;13.25;;;5.68;;
41865;SDS011;27539;43.222;27.558;2023-04-24T04:25:55;11.67;;;7.03;;
41865;SDS011;27539;43.222;27.558;2023-04-24T04:28:21;12.02;;;6.78;;
41865;SDS011;27539;43.222;27.558;2023-04-24T04:30:46;6.28;;;4.70;;
41865;SDS011;27539;43.222;27.558;2023-04-24T04:33:12;15.40;;;5.43;;
41865;SDS011;27539;43.222;27.558;2023-04-24T04:35:38;10.10;;;5.82;;
41865;SDS011;27539;43.222;27.558;2023-04-24T04:38:03;6.40;;;5.53;;
41865;SDS011;27539;43.222;27.558;2023-04-24T04:40:29;11.93;;;5.00;;
41865;SDS011;27539;43.222;27.558;2023-04-24T04:42:55;4.97;;;2.88;;
41865;SDS011;27539;43.222;27.558;2023-04-24T04:45:20;3.08;;;2.22;;
41865;SDS011;27539;43.222;27.558;2023-04-24T04:47:46;4.45;;;2.35;;
41865;SDS011;27539;43.222;27.558;2023-04-24T04:50:13;8.02;;;3.15;;
41865;SDS011;27539;43.222;27.558;2023-04-24T04:52:39;15.57;;;2.00;;
41865;SDS011;27539;43.222;27.558;2023-04-24T04:55:05;4.30;;;2.97;;
41865;SDS011;27539;43.222;27.558;2023-04-24T04:57:31;2.05;;;1.83;;
41865;SDS011;27539;43.222;27.558;2023-04-24T04:59:56;2.10;;;1.90;;
41865;SDS011;27539;43.222;27.558;2023-04-24T05:02:22;2.22;;;2.03;;
41865;SDS011;27539;43.222;27.558;2023-04-24T05:04:47;4.03;;;2.78;;
41865;SDS011;27539;43.222;27.558;2023-04-24T05:07:13;2.47;;;2.17;;
41865;SDS011;27539;43.222;27.558;2023-04-24T05:09:38;8.00;;;2.65;;
41865;SDS011;27539;43.222;27.558;2023-04-24T05:12:04;8.35;;;3.92;;
41865;SDS011;27539;43.222;27.558;2023-04-24T05:14:29;4.28;;;3.05;;
41865;SDS011;27539;43.222;27.558;2023-04-24T05:16:55;4.38;;;3.17;;
41865;SDS011;27539;43.222;27.558;2023-04-24T05:19:20;4.47;;;3.80;;
41865;SDS011;27539;43.222;27.558;2023-04-24T05:21:46;12.77;;;5.38;;
41865;SDS011;27539;43.222;27.558;2023-04-24T05:24:11;10.63;;;6.78;;
41865;SDS011;27539;43.222;27.558;2023-04-24T05:26:36;9.93;;;7.63;;
41865;SDS011;27539;43.222;27.558;2023-04-24T05:29:02;12.35;;;6.00;;
41865;SDS011;27539;43.222;27.558;2023-04-24T05:31:28;22.77;;;6.83;;
41865;SDS011;27539;43.222;27.558;2023-04-24T05:33:54;13.80;;;7.10;;
41865;SDS011;27539;43.222;27.558;2023-04-24T05:36:19;14.55;;;8.68;;
41865;SDS011;27539;43.222;27.558;2023-04-24T05:38:45;15.07;;;8.02;;
41865;SDS011;27539;43.222;27.558;2023-04-24T05:41:10;10.82;;;6.63;;
41865;SDS011;27539;43.222;27.558;2023-04-24T05:43:36;9.98;;;6.55;;
41865;SDS011;27539;43.222;27.558;2023-04-24T05:46:01;7.60;;;4.68;;
41865;SDS011;27539;43.222;27.558;2023-04-24T05:48:27;7.82;;;4.22;;
41865;SDS011;27539;43.222;27.558;2023-04-24T05:50:52;11.10;;;5.72;;
41865;SDS011;27539;43.222;27.558;2023-04-24T05:53:18;7.35;;;4.72;;
41865;SDS011;27539;43.222;27.558;2023-04-24T05:55:44;8.95;;;5.47;;
41865;SDS011;27539;43.222;27.558;2023-04-24T05:58:10;3.47;;;3.10;;
41865;SDS011;27539;43.222;27.558;2023-04-24T06:00:36;2.92;;;2.55;;
41865;SDS011;27539;43.222;27.558;2023-04-24T06:03:02;8.07;;;5.13;;
41865;SDS011;27539;43.222;27.558;2023-04-24T06:05:28;3.65;;;2.25;;
41865;SDS011;27539;43.222;27.558;2023-04-24T06:07:54;5.25;;;3.83;;
41865;SDS011;27539;43.222;27.558;2023-04-24T06:10:20;4.95;;;2.83;;
41865;SDS011;27539;43.222;27.558;2023-04-24T06:12:45;8.10;;;4.53;;
41865;SDS011;27539;43.222;27.558;2023-04-24T06:15:11;4.93;;;3.30;;
41865;SDS011;27539;43.222;27.558;2023-04-24T06:17:36;12.52;;;6.20;;
41865;SDS011;27539;43.222;27.558;2023-04-24T06:20:02;4.82;;;4.00;;
41865;SDS011;27539;43.222;27.558;2023-04-24T06:22:30;8.15;;;6.07;;
41865;SDS011;27539;43.222;27.558;2023-04-24T06:24:56;8.80;;;7.20;;
41865;SDS011;27539;43.222;27.558;2023-04-24T06:27:21;13.75;;;7.55;;
41865;SDS011;27539;43.222;27.558;2023-04-24T06:29:47;11.50;;;6.03;;
41865;SDS011;27539;43.222;27.558;2023-04-24T06:32:19;6.50;;;3.90;;
41865;SDS011;27539;43.222;27.558;2023-04-24T06:34:45;13.98;;;4.97;;
41865;SDS011;27539;43.222;27.558;2023-04-24T06:37:10;13.25;;;7.20;;
41865;SDS011;27539;43.222;27.558;2023-04-24T06:39:35;7.07;;;2.97;;
41865;SDS011;27539;43.222;27.558;2023-04-24T06:42:01;1.95;;;1.80;;
41865;SDS011;27539;43.222;27.558;2023-04-24T06:44:26;1.05;;;1.05;;
41865;SDS011;27539;43.222;27.558;2023-04-24T06:46:52;2.58;;;1.77;;
41865;SDS011;27539;43.222;27.558;2023-04-24T06:49:17;1.80;;;1.55;;
41865;SDS011;27539;43.222;27.558;2023-04-24T06:51:43;1.92;;;1.75;;
41865;SDS011;27539;43.222;27.558;2023-04-24T06:54:08;1.70;;;0.43;;
41865;SDS011;27539;43.222;27.558;2023-04-24T06:56:34;1.23;;;1.13;;
41865;SDS011;27539;43.222;27.558;2023-04-24T06:58:59;1.05;;;0.85;;
41865;SDS011;27539;43.222;27.558;2023-04-24T07:01:25;2.88;;;1.42;;
41865;SDS011;27539;43.222;27.558;2023-04-24T07:03:50;2.95;;;1.00;;
41865;SDS011;27539;43.222;27.558;2023-04-24T07:06:15;2.08;;;1.63;;
41865;SDS011;27539;43.222;27.558;2023-04-24T07:08:43;1.73;;;1.45;;
41865;SDS011;27539;43.222;27.558;2023-04-24T07:11:09;2.58;;;0.88;;
41865;SDS011;27539;43.222;27.558;2023-04-24T07:13:34;0.60;;;0.60;;
41865;SDS011;27539;43.222;27.558;2023-04-24T07:16:00;3.63;;;0.98;;
41865;SDS011;27539;43.222;27.558;2023-04-24T07:18:26;1.45;;;0.85;;
41865;SDS011;27539;43.222;27.558;2023-04-24T07:20:51;2.38;;;1.23;;
41865;SDS011;27539;43.222;27.558;2023-04-24T07:23:17;2.30;;;0.82;;
41865;SDS011;27539;43.222;27.558;2023-04-24T07:25:43;0.87;;;0.87;;
41865;SDS011;27539;43.222;27.558;2023-04-24T07:28:09;0.30;;;0.30;;
41865;SDS011;27539;43.222;27.558;2023-04-24T07:30:34;8.20;;;1.20;;
41865;SDS011;27539;43.222;27.558;2023-04-24T07:33:00;1.02;;;0.93;;
41865;SDS011;27539;43.222;27.558;2023-04-24T07:35:26;3.13;;;1.85;;
41865;SDS011;27539;43.222;27.558;2023-04-24T07:37:55;1.83;;;0.88;;
41865;SDS011;27539;43.222;27.558;2023-04-24T07:40:21;2.88;;;1.30;;
41865;SDS011;27539;43.222;27.558;2023-04-24T07:42:47;3.03;;;1.80;;
41865;SDS011;27539;43.222;27.558;2023-04-24T07:45:15;0.65;;;0.60;;
41865;SDS011;27539;43.222;27.558;2023-04-24T07:47:41;0.98;;;0.60;;
41865;SDS011;27539;43.222;27.558;2023-04-24T07:50:09;2.25;;;1.20;;
41865;SDS011;27539;43.222;27.558;2023-04-24T07:52:35;3.60;;;1.07;;
41865;SDS011;27539;43.222;27.558;2023-04-24T07:55:01;1.58;;;0.88;;
41865;SDS011;27539;43.222;27.558;2023-04-24T07:57:27;0.55;;;0.50;;
41865;SDS011;27539;43.222;27.558;2023-04-24T07:59:53;1.90;;;1.20;;
41865;SDS011;27539;43.222;27.558;2023-04-24T08:02:18;2.47;;;1.60;;
41865;SDS011;27539;43.222;27.558;2023-04-24T08:04:43;3.60;;;2.08;;
41865;SDS011;27539;43.222;27.558;2023-04-24T08:07:09;1.75;;;1.05;;
41865;SDS011;27539;43.222;27.558;2023-04-24T08:09:34;5.50;;;1.10;;
41865;SDS011;27539;43.222;27.558;2023-04-24T08:12:00;1.60;;;1.23;;
41865;SDS011;27539;43.222;27.558;2023-04-24T08:14:26;1.10;;;0.60;;
41865;SDS011;27539;43.222;27.558;2023-04-24T08:16:53;1.02;;;0.90;;
41865;SDS011;27539;43.222;27.558;2023-04-24T08:19:20;1.95;;;0.90;;
41865;SDS011;27539;43.222;27.558;2023-04-24T08:21:46;3.13;;;1.35;;
41865;SDS011;27539;43.222;27.558;2023-04-24T08:24:11;0.75;;;0.75;;
41865;SDS011;27539;43.222;27.558;2023-04-24T08:26:37;0.90;;;0.60;;
41865;SDS011;27539;43.222;27.558;2023-04-24T08:29:02;2.05;;;1.33;;
41865;SDS011;27539;43.222;27.558;2023-04-24T08:31:28;3.13;;;2.10;;
41865;SDS011;27539;43.222;27.558;2023-04-24T08:33:53;0.55;;;0.55;;
41865;SDS011;27539;43.222;27.558;2023-04-24T08:36:19;5.40;;;0.70;;
41865;SDS011;27539;43.222;27.558;2023-04-24T08:38:45;2.03;;;1.40;;
41865;SDS011;27539;43.222;27.558;2023-04-24T08:41:11;2.97;;;0.75;;
41865;SDS011;27539;43.222;27.558;2023-04-24T08:43:39;1.65;;;0.77;;
41865;SDS011;27539;43.222;27.558;2023-04-24T08:46:06;0.63;;;0.63;;
41865;SDS011;27539;43.222;27.558;2023-04-24T08:48:32;0.70;;;0.70;;
41865;SDS011;27539;43.222;27.558;2023-04-24T08:50:58;1.63;;;1.05;;
41865;SDS011;27539;43.222;27.558;2023-04-24T08:53:24;1.23;;;0.75;;
41865;SDS011;27539;43.222;27.558;2023-04-24T08:55:50;1.20;;;1.10;;
41865;SDS011;27539;43.222;27.558;2023-04-24T08:58:17;0.80;;;0.77;;
41865;SDS011;27539;43.222;27.558;2023-04-24T09:00:45;1.75;;;0.73;;
41865;SDS011;27539;43.222;27.558;2023-04-24T09:03:13;0.40;;;0.40;;
41865;SDS011;27539;43.222;27.558;2023-04-24T09:05:41;2.55;;;0.90;;
41865;SDS011;27539;43.222;27.558;2023-04-24T09:08:10;7.68;;;1.58;;
41865;SDS011;27539;43.222;27.558;2023-04-24T09:10:38;0.70;;;0.70;;
41865;SDS011;27539;43.222;27.558;2023-04-24T09:13:04;1.73;;;1.40;;
41865;SDS011;27539;43.222;27.558;2023-04-24T09:15:31;2.10;;;1.27;;
41865;SDS011;27539;43.222;27.558;2023-04-24T09:17:57;0.68;;;0.60;;
41865;SDS011;27539;43.222;27.558;2023-04-24T09:20:22;3.30;;;1.27;;
41865;SDS011;27539;43.222;27.558;2023-04-24T09:22:48;1.25;;;0.73;;
41865;SDS011;27539;43.222;27.558;2023-04-24T09:25:13;8.83;;;1.17;;
41865;SDS011;27539;43.222;27.558;2023-04-24T09:27:42;0.43;;;0.43;;
41865;SDS011;27539;43.222;27.558;2023-04-24T09:30:09;0.60;;;0.60;;
41865;SDS011;27539;43.222;27.558;2023-04-24T09:32:35;1.70;;;1.13;;
41865;SDS011;27539;43.222;27.558;2023-04-24T09:35:19;1.17;;;1.02;;
41865;SDS011;27539;43.222;27.558;2023-04-24T09:37:45;0.63;;;0.55;;
41865;SDS011;27539;43.222;27.558;2023-04-24T09:45:08;0.30;;;0.30;;
41865;SDS011;27539;43.222;27.558;2023-04-24T09:47:37;0.98;;;0.88;;
41865;SDS011;27539;43.222;27.558;2023-04-24T09:50:13;0.82;;;0.82;;
41865;SDS011;27539;43.222;27.558;2023-04-24T09:52:47;0.68;;;0.60;;
41865;SDS011;27539;43.222;27.558;2023-04-24T09:55:21;0.82;;;0.60;;
41865;SDS011;27539;43.222;27.558;2023-04-24T09:57:48;0.97;;;0.83;;
41865;SDS011;27539;43.222;27.558;2023-04-24T10:00:34;1.63;;;0.73;;
41865;SDS011;27539;43.222;27.558;2023-04-24T10:03:01;2.22;;;1.45;;
41865;SDS011;27539;43.222;27.558;2023-04-24T10:05:34;1.20;;;0.82;;
41865;SDS011;27539;43.222;27.558;2023-04-24T10:08:07;0.95;;;0.85;;
41865;SDS011;27539;43.222;27.558;2023-04-24T10:10:40;2.60;;;0.68;;
41865;SDS011;27539;43.222;27.558;2023-04-24T10:13:10;1.15;;;0.70;;
41865;SDS011;27539;43.222;27.558;2023-04-24T10:15:37;0.45;;;0.45;;
41865;SDS011;27539;43.222;27.558;2023-04-24T10:18:04;1.73;;;1.02;;
41865;SDS011;27539;43.222;27.558;2023-04-24T10:20:31;2.17;;;1.42;;
41865;SDS011;27539;43.222;27.558;2023-04-24T10:25:24;1.70;;;1.27;;
41865;SDS011;27539;43.222;27.558;2023-04-24T10:27:52;1.33;;;1.00;;
41865;SDS011;27539;43.222;27.558;2023-04-24T10:30:22;0.35;;;0.35;;
41865;SDS011;27539;43.222;27.558;2023-04-24T10:32:48;1.20;;;1.07;;
41865;SDS011;27539;43.222;27.558;2023-04-24T10:35:14;1.33;;;0.40;;
41865;SDS011;27539;43.222;27.558;2023-04-24T10:37:46;3.25;;;1.15;;
41865;SDS011;27539;43.222;27.558;2023-04-24T10:40:19;0.73;;;0.73;;
41865;SDS011;27539;43.222;27.558;2023-04-24T10:42:55;1.73;;;1.17;;
41865;SDS011;27539;43.222;27.558;2023-04-24T10:45:22;1.33;;;1.07;;
41865;SDS011;27539;43.222;27.558;2023-04-24T10:50:42;2.22;;;0.90;;
41865;SDS011;27539;43.222;27.558;2023-04-24T10:53:17;2.90;;;1.40;;
41865;SDS011;27539;43.222;27.558;2023-04-24T10:58:11;3.50;;;0.73;;
41865;SDS011;27539;43.222;27.558;2023-04-24T11:00:38;0.63;;;0.63;;
41865;SDS011;27539;43.222;27.558;2023-04-24T11:03:22;1.08;;;0.52;;
41865;SDS011;27539;43.222;27.558;2023-04-24T11:05:57;0.57;;;0.57;;
41865;SDS011;27539;43.222;27.558;2023-04-24T11:08:39;2.25;;;1.13;;
41865;SDS011;27539;43.222;27.558;2023-04-24T11:16:29;0.85;;;0.50;;
41865;SDS011;27539;43.222;27.558;2023-04-24T11:26:55;0.93;;;0.60;;
41865;SDS011;27539;43.222;27.558;2023-04-24T11:29:23;0.30;;;0.30;;
41865;SDS011;27539;43.222;27.558;2023-04-24T11:35:13;1.15;;;0.55;;
41865;SDS011;27539;43.222;27.558;2023-04-24T11:37:49;0.45;;;0.45;;
41865;SDS011;27539;43.222;27.558;2023-04-24T11:40:17;0.63;;;0.63;;
41865;SDS011;27539;43.222;27.558;2023-04-24T11:42:46;4.00;;;1.40;;
41865;SDS011;27539;43.222;27.558;2023-04-24T11:45:13;2.78;;;1.60;;
41865;SDS011;27539;43.222;27.558;2023-04-24T11:47:40;1.33;;;0.68;;
41865;SDS011;27539;43.222;27.558;2023-04-24T11:50:08;0.77;;;0.77;;
41865;SDS011;27539;43.222;27.558;2023-04-24T11:52:38;1.17;;;0.60;;
41865;SDS011;27539;43.222;27.558;2023-04-24T11:55:24;0.63;;;0.60;;
41865;SDS011;27539;43.222;27.558;2023-04-24T11:57:58;0.68;;;0.60;;
41865;SDS011;27539;43.222;27.558;2023-04-24T12:00:28;7.97;;;1.02;;
41865;SDS011;27539;43.222;27.558;2023-04-24T12:03:07;0.52;;;0.52;;
41865;SDS011;27539;43.222;27.558;2023-04-24T12:05:35;0.65;;;0.65;;
41865;SDS011;27539;43.222;27.558;2023-04-24T12:08:00;0.20;;;0.20;;
41865;SDS011;27539;43.222;27.558;2023-04-24T12:10:27;1.67;;;0.80;;
41865;SDS011;27539;43.222;27.558;2023-04-24T12:12:55;0.32;;;0.30;;
41865;SDS011;27539;43.222;27.558;2023-04-24T12:15:22;2.00;;;1.33;;
41865;SDS011;27539;43.222;27.558;2023-04-24T12:17:48;0.70;;;0.70;;
41865;SDS011;27539;43.222;27.558;2023-04-24T12:20:16;0.65;;;0.35;;
41865;SDS011;27539;43.222;27.558;2023-04-24T12:22:43;3.83;;;1.17;;
41865;SDS011;27539;43.222;27.558;2023-04-24T12:25:11;2.15;;;1.00;;
41865;SDS011;27539;43.222;27.558;2023-04-24T12:27:37;1.80;;;1.20;;
41865;SDS011;27539;43.222;27.558;2023-04-24T12:30:03;0.60;;;0.60;;
41865;SDS011;27539;43.222;27.558;2023-04-24T12:32:30;5.95;;;1.08;;
41865;SDS011;27539;43.222;27.558;2023-04-24T12:34:57;0.47;;;0.40;;
41865;SDS011;27539;43.222;27.558;2023-04-24T12:37:26;0.45;;;0.45;;
41865;SDS011;27539;43.222;27.558;2023-04-24T12:39:58;0.43;;;0.43;;
41865;SDS011;27539;43.222;27.558;2023-04-24T12:42:32;1.63;;;0.93;;
41865;SDS011;27539;43.222;27.558;2023-04-24T12:44:58;0.97;;;0.63;;
41865;SDS011;27539;43.222;27.558;2023-04-24T12:47:25;1.75;;;0.82;;
41865;SDS011;27539;43.222;27.558;2023-04-24T12:49:54;1.05;;;0.60;;
41865;SDS011;27539;43.222;27.558;2023-04-24T12:52:23;0.70;;;0.70;;
41865;SDS011;27539;43.222;27.558;2023-04-24T12:54:50;0.57;;;0.43;;
41865;SDS011;27539;43.222;27.558;2023-04-24T12:57:18;0.10;;;0.10;;
41865;SDS011;27539;43.222;27.558;2023-04-24T12:59:43;1.43;;;0.80;;
41865;SDS011;27539;43.222;27.558;2023-04-24T13:02:09;0.57;;;0.55;;
41865;SDS011;27539;43.222;27.558;2023-04-24T13:04:35;4.03;;;1.33;;
41865;SDS011;27539;43.222;27.558;2023-04-24T13:07:00;2.92;;;0.80;;
41865;SDS011;27539;43.222;27.558;2023-04-24T13:09:26;0.50;;;0.50;;
41865;SDS011;27539;43.222;27.558;2023-04-24T13:11:51;0.50;;;0.50;;
41865;SDS011;27539;43.222;27.558;2023-04-24T13:14:17;2.83;;;0.52;;
41865;SDS011;27539;43.222;27.558;2023-04-24T13:16:42;0.60;;;0.60;;
41865;SDS011;27539;43.222;27.558;2023-04-24T13:19:08;0.27;;;0.27;;
41865;SDS011;27539;43.222;27.558;2023-04-24T13:21:33;0.45;;;0.45;;
41865;SDS011;27539;43.222;27.558;2023-04-24T13:23:59;2.60;;;2.28;;
41865;SDS011;27539;43.222;27.558;2023-04-24T13:26:24;1.75;;;1.05;;
41865;SDS011;27539;43.222;27.558;2023-04-24T13:28:50;2.45;;;1.33;;
41865;SDS011;27539;43.222;27.558;2023-04-24T13:31:15;2.13;;;1.63;;
41865;SDS011;27539;43.222;27.558;2023-04-24T13:33:41;1.87;;;1.23;;
41865;SDS011;27539;43.222;27.558;2023-04-24T13:36:07;1.13;;;1.02;;
41865;SDS011;27539;43.222;27.558;2023-04-24T13:38:33;0.80;;;0.80;;
41865;SDS011;27539;43.222;27.558;2023-04-24T13:40:58;3.60;;;1.52;;
41865;SDS011;27539;43.222;27.558;2023-04-24T13:43:24;0.85;;;0.80;;
41865;SDS011;27539;43.222;27.558;2023-04-24T13:45:50;4.80;;;0.65;;
41865;SDS011;27539;43.222;27.558;2023-04-24T13:48:15;6.23;;;1.07;;
41865;SDS011;27539;43.222;27.558;2023-04-24T13:50:41;4.57;;;1.17;;
41865;SDS011;27539;43.222;27.558;2023-04-24T13:53:07;2.67;;;1.25;;
41865;SDS011;27539;43.222;27.558;2023-04-24T13:55:33;5.05;;;1.20;;
41865;SDS011;27539;43.222;27.558;2023-04-24T13:57:59;2.40;;;1.92;;
41865;SDS011;27539;43.222;27.558;2023-04-24T14:00:24;2.58;;;1.30;;
41865;SDS011;27539;43.222;27.558;2023-04-24T14:02:50;2.63;;;1.27;;
41865;SDS011;27539;43.222;27.558;2023-04-24T14:05:16;1.05;;;1.05;;
41865;SDS011;27539;43.222;27.558;2023-04-24T14:07:42;1.02;;;0.90;;
41865;SDS011;27539;43.222;27.558;2023-04-24T14:10:07;10.30;;;1.80;;
41865;SDS011;27539;43.222;27.558;2023-04-24T14:12:33;3.38;;;1.95;;
41865;SDS011;27539;43.222;27.558;2023-04-24T14:14:59;13.10;;;1.13;;
41865;SDS011;27539;43.222;27.558;2023-04-24T14:17:26;2.92;;;1.35;;
41865;SDS011;27539;43.222;27.558;2023-04-24T14:19:52;2.65;;;1.60;;
41865;SDS011;27539;43.222;27.558;2023-04-24T14:22:20;2.15;;;1.48;;
41865;SDS011;27539;43.222;27.558;2023-04-24T14:24:46;5.25;;;1.23;;
41865;SDS011;27539;43.222;27.558;2023-04-24T14:27:11;0.80;;;0.75;;
41865;SDS011;27539;43.222;27.558;2023-04-24T14:29:37;0.68;;;0.68;;
41865;SDS011;27539;43.222;27.558;2023-04-24T14:32:02;1.02;;;0.28;;
41865;SDS011;27539;43.222;27.558;2023-04-24T14:34:28;0.88;;;0.70;;
41865;SDS011;27539;43.222;27.558;2023-04-24T14:36:53;1.65;;;1.30;;
41865;SDS011;27539;43.222;27.558;2023-04-24T14:39:19;2.03;;;1.63;;
41865;SDS011;27539;43.222;27.558;2023-04-24T14:41:45;5.13;;;2.00;;
41865;SDS011;27539;43.222;27.558;2023-04-24T14:44:11;1.15;;;1.05;;
41865;SDS011;27539;43.222;27.558;2023-04-24T14:46:36;1.92;;;1.10;;
41865;SDS011;27539;43.222;27.558;2023-04-24T14:49:02;3.33;;;1.65;;
41865;SDS011;27539;43.222;27.558;2023-04-24T14:51:27;3.25;;;1.50;;
41865;SDS011;27539;43.222;27.558;2023-04-24T14:53:53;10.95;;;1.35;;
41865;SDS011;27539;43.222;27.558;2023-04-24T14:56:18;1.38;;;0.93;;
41865;SDS011;27539;43.222;27.558;2023-04-24T14:58:44;2.08;;;1.20;;
41865;SDS011;27539;43.222;27.558;2023-04-24T15:01:10;1.42;;;1.15;;
41865;SDS011;27539;43.222;27.558;2023-04-24T15:03:35;0.60;;;0.60;;